Flight Track Log - Related Links

Times and Time Zones

All times are in EDT time to prevent confusion due to time zone crossing. See the NDU7 flight status page for this flight to view local times or setup timezone preferences in your user account.

Time Position Orientation Groundspeed Altitude Reporting Facility
EDT Latitude Longitude Course Direction KTS MPH feet Rate Location/Type
Thu 10:07:59 PM 47.9333 -97.1628 141° Southeast 66 76 1,400  Level Minneapolis Center
Thu 10:09:12 PM 47.9150 -97.1408 141° Southeast 72 83 2,200 632 Climbing Minneapolis Center
Thu 10:10:12 PM 47.9025 -97.1117 123° Southeast 84 97 2,800 595 Climbing Minneapolis Center
Thu 10:11:13 PM 47.8858 -97.0864 135° Southeast 84 97 3,400 545 Climbing Minneapolis Center
Thu 10:12:13 PM 47.8672 -97.0614 138° Southeast 91 105 3,900 545 Climbing Minneapolis Center
Thu 10:13:14 PM 47.8483 -97.0303 132° Southeast 96 110 4,500 541 Climbing Minneapolis Center
Thu 10:14:15 PM 47.8314 -97.0017 131° Southeast 97 112 5,000 298 Climbing Minneapolis Center
Thu 10:15:15 PM 47.8081 -96.9683 136° Southeast 110 127 5,100 50 Climbing Minneapolis Center
Thu 10:16:16 PM 47.7825 -96.9353 139° Southeast 122 140 5,100 248 Level Minneapolis Center
Thu 10:17:16 PM 47.7592 -96.9017 136° Southeast 109 125 5,600 496 Climbing Minneapolis Center
Thu 10:18:17 PM 47.7444 -96.8761 131° Southeast 90 104 6,100 541 Climbing Minneapolis Center
Thu 10:19:18 PM 47.7256 -96.8483 135° Southeast 91 105 6,700 496 Climbing Minneapolis Center
Thu 10:20:18 PM 47.7092 -96.8231 134° Southeast 89 102 7,100 446 Climbing Minneapolis Center
Thu 10:21:19 PM 47.6903 -96.7953 135° Southeast 93 107 7,600 496 Climbing Minneapolis Center
Thu 10:22:19 PM 47.6711 -96.7644 133° Southeast 92 106 8,100 415 Climbing Minneapolis Center
Thu 10:23:58 PM 47.6458 -96.7286 136° Southeast 91 105 8,700 298 Climbing Minneapolis Center
Thu 10:25:00 PM 47.6228 -96.6958 136° Southeast 95 109 8,900 146 Climbing Minneapolis Center
Thu 10:26:01 PM 47.5967 -96.6614 138° Southeast 117 135 9,000  Climbing Minneapolis Center
Thu 10:27:02 PM 47.5708 -96.6258 137° Southeast 121 139 8,900 -49 Descending Minneapolis Center
Thu 10:28:04 PM 47.5467 -96.5864 132° Southeast 123 142 8,900  Level Minneapolis Center
Thu 10:29:05 PM 47.5233 -96.5517 135° Southeast 124 143 8,900  Level Minneapolis Center
Thu 10:30:07 PM 47.4986 -96.5153 135° Southeast 121 139 8,900  Level Minneapolis Center
Thu 10:31:08 PM 47.4736 -96.4797 136° Southeast 119 137 8,900  Level Minneapolis Center
Thu 10:32:09 PM 47.4514 -96.4469 135° Southeast 118 136 8,900  Level Minneapolis Center
Thu 10:33:11 PM 47.4269 -96.4103 135° Southeast 120 138 8,900  Level Minneapolis Center
Thu 10:34:12 PM 47.4006 -96.3761 139° Southeast 121 139 8,900 49 Level Minneapolis Center
Thu 10:35:13 PM 47.3800 -96.3494 139° Southeast 122 140 9,000  Climbing Minneapolis Center
Thu 10:36:15 PM 47.3483 -96.3106 140° Southeast 122 140 8,900 -293 Descending Minneapolis Center
Thu 10:37:16 PM 47.3214 -96.2756 139° Southeast 124 143 8,400 -787 Descending Minneapolis Center
Thu 10:38:17 PM 47.2939 -96.2333 134° Southeast 136 157 7,300 -1,073 Descending Minneapolis Center
Thu 10:39:19 PM 47.2681 -96.1914 132° Southeast 143 165 6,200 -927 Descending Minneapolis Center
Thu 10:40:20 PM 47.2408 -96.1494 134° Southeast 136 157 5,400 -393 Descending Minneapolis Center
Thu 10:41:21 PM 47.2164 -96.1153 136° Southeast 120 138 5,400  Level Minneapolis Center
Thu 10:42:23 PM 47.1939 -96.0822 135° Southeast 119 137 5,400  Level Minneapolis Center
Thu 10:43:24 PM 47.1692 -96.0456 135° Southeast 122 140 5,400  Level Minneapolis Center
Thu 10:44:25 PM 47.1444 -96.0086 135° Southeast 121 139 5,400  Level Minneapolis Center
Thu 10:45:27 PM 47.1192 -95.9714 135° Southeast 123 142 5,400  Level Minneapolis Center
Thu 10:46:28 PM 47.0956 -95.9381 136° Southeast 121 139 5,400  Level Minneapolis Center
Thu 10:47:29 PM 47.0708 -95.9028 136° Southeast 119 137 5,400 49 Level Minneapolis Center
Thu 10:48:30 PM 47.0467 -95.8683 136° Southeast 118 136 5,500  Climbing Minneapolis Center
Thu 10:49:32 PM 47.0225 -95.8375 139° Southeast 121 139 5,400 -49 Descending Minneapolis Center
Thu 10:50:33 PM 46.9969 -95.8006 135° Southeast 122 140 5,400 49 Level Minneapolis Center
Thu 10:51:34 PM 46.9717 -95.7658 137° Southeast 121 139 5,500 49 Climbing Minneapolis Center
Thu 10:52:36 PM 46.9483 -95.7314 135° Southeast 124 143 5,500  Level Minneapolis Center
Thu 10:53:37 PM 46.9233 -95.6989 138° Southeast 116 133 5,500 49 Level Minneapolis Center
Thu 10:54:38 PM 46.9036 -95.6719 137° Southeast 120 138 5,600 49 Climbing Minneapolis Center
Thu 10:55:39 PM 46.8742 -95.6331 138° Southeast 119 137 5,600 -49 Level Minneapolis Center
Thu 10:56:41 PM 46.8486 -95.6000 138° Southeast 119 137 5,500 -49 Descending Minneapolis Center
Thu 10:57:42 PM 46.8225 -95.5658 138° Southeast 119 137 5,500  Level Minneapolis Center
Thu 10:58:43 PM 46.8003 -95.5311 133° Southeast 123 142 5,500  Level Minneapolis Center
Thu 10:59:44 PM 46.7744 -95.4967 138° Southeast 120 138 5,500  Level Minneapolis Center
Thu 11:00:58 PM 46.7464 -95.4608 139° Southeast 113 130 5,500  Level Minneapolis Center
Thu 11:01:59 PM 46.7225 -95.4350 143° Southeast 116 133 5,500  Level Minneapolis Center
Thu 11:03:00 PM 46.6958 -95.3964 135° Southeast 116 133 5,500  Level Minneapolis Center
Thu 11:04:02 PM 46.6758 -95.3606 129° Southeast 115 132 5,500  Level Minneapolis Center
Thu 11:05:03 PM 46.6536 -95.3258 133° Southeast 116 133 5,500 -49 Level Minneapolis Center
Thu 11:06:04 PM 46.6289 -95.2964 141° Southeast 117 135 5,400 -49 Descending Minneapolis Center
Thu 11:07:06 PM 46.6047 -95.2631 137° Southeast 119 137 5,400 49 Level Minneapolis Center
Thu 11:08:07 PM 46.5856 -95.2367 137° Southeast 119 137 5,500  Climbing Minneapolis Center
Thu 11:09:08 PM 46.5564 -95.1978 137° Southeast 119 137 5,400 -49 Descending Minneapolis Center
Thu 11:10:10 PM 46.5269 -95.1608 139° Southeast 119 137 5,400 49 Level Minneapolis Center
Thu 11:11:11 PM 46.5044 -95.1292 136° Southeast 117 135 5,500 49 Climbing Minneapolis Center
Thu 11:12:12 PM 46.4792 -95.0975 139° Southeast 117 135 5,500  Level Minneapolis Center
Thu 11:13:14 PM 46.4558 -95.0656 137° Southeast 117 135 5,500  Level Minneapolis Center
Thu 11:14:15 PM 46.4319 -95.0308 135° Southeast 118 136 5,500  Level Minneapolis Center
Thu 11:15:16 PM 46.4089 -94.9958 134° Southeast 119 137 5,500  Level Minneapolis Center
Thu 11:16:18 PM 46.3847 -94.9633 137° Southeast 119 137 5,500  Level Minneapolis Center
Thu 11:17:19 PM 46.3628 -94.9283 132° Southeast 119 137 5,500  Level Minneapolis Center
Thu 11:18:20 PM 46.3325 -94.8886 138° Southeast 120 138 5,500  Level Minneapolis Center
Thu 11:19:22 PM 46.3100 -94.8544 134° Southeast 120 138 5,500  Level Minneapolis Center
Thu 11:20:23 PM 46.2858 -94.8217 137° Southeast 119 137 5,500  Level Minneapolis Center
Thu 11:21:24 PM 46.2611 -94.7889 137° Southeast 120 138 5,500  Level Minneapolis Center
Thu 11:22:26 PM 46.2361 -94.7547 137° Southeast 121 139 5,500  Level Minneapolis Center
Thu 11:23:39 PM 46.2111 -94.7239 140° Southeast 121 139 5,500  Level Minneapolis Center
Thu 11:24:40 PM 46.1836 -94.6819 133° Southeast 120 138 5,500  Level Minneapolis Center
Thu 11:25:42 PM 46.1583 -94.6478 137° Southeast 121 139 5,500  Level Minneapolis Center
Thu 11:26:43 PM 46.1342 -94.6153 137° Southeast 121 139 5,500  Level Minneapolis Center
Thu 11:27:44 PM 46.1042 -94.5792 140° Southeast 120 138 5,500  Level Minneapolis Center
Thu 11:28:45 PM 46.0808 -94.5469 136° Southeast 119 137 5,500  Level Minneapolis Center
Thu 11:29:47 PM 46.0575 -94.5139 135° Southeast 116 133 5,500  Level Minneapolis Center
Thu 11:30:48 PM 46.0322 -94.4819 139° Southeast 119 137 5,500  Level Minneapolis Center
Thu 11:31:49 PM 46.0064 -94.4489 138° Southeast 121 139 5,500  Level Minneapolis Center
Thu 11:32:50 PM 45.9814 -94.4167 138° Southeast 121 139 5,500  Level Minneapolis Center
Thu 11:33:51 PM 45.9575 -94.3825 135° Southeast 121 139 5,500  Level Minneapolis Center
Thu 11:34:53 PM 45.9322 -94.3525 140° Southeast 120 138 5,500 49 Level Minneapolis Center
Thu 11:35:54 PM 45.9072 -94.3203 138° Southeast 120 138 5,600 49 Climbing Minneapolis Center
Thu 11:36:55 PM 45.8811 -94.2914 142° Southeast 120 138 5,600  Level Minneapolis Center
Thu 11:37:56 PM 45.8583 -94.2556 132° Southeast 120 138 5,600 -49 Level Minneapolis Center
Thu 11:38:58 PM 45.8325 -94.2111 130° Southeast 121 139 5,500 -49 Descending Minneapolis Center
Thu 11:39:59 PM 45.8044 -94.1864 148° Southeast 119 137 5,500  Level Minneapolis Center
Thu 11:41:00 PM 45.7806 -94.1556 138° Southeast 116 133 5,500  Level Minneapolis Center
Thu 11:42:01 PM 45.7567 -94.1225 136° Southeast 118 136 5,500  Level Minneapolis Center
Thu 11:43:02 PM 45.7325 -94.0892 136° Southeast 120 138 5,500  Level Minneapolis Center
Thu 11:44:03 PM 45.7075 -94.0578 139° Southeast 119 137 5,500  Level Minneapolis Center
Thu 11:45:04 PM 45.6833 -94.0253 137° Southeast 119 137 5,500  Level Minneapolis Center
Thu 11:46:05 PM 45.6578 -93.9944 140° Southeast 120 138 5,500  Level Minneapolis Center
Thu 11:47:07 PM 45.6333 -93.9611 136° Southeast 121 139 5,500  Level Minneapolis Center
Thu 11:48:08 PM 45.6100 -93.9300 137° Southeast 116 133 5,500  Level Minneapolis Center
Thu 11:49:09 PM 45.5811 -93.8911 137° Southeast 119 137 5,500 45 Level Minneapolis Center
Thu 11:50:22 PM 45.5567 -93.8592 138° Southeast 120 138 5,600 -45 Climbing Minneapolis Center
Thu 11:51:23 PM 45.5275 -93.8219 138° Southeast 119 137 5,400 -49 Descending Minneapolis Center
Thu 11:52:24 PM 45.5047 -93.7908 136° Southeast 113 130 5,500 98 Climbing Minneapolis Center
Thu 11:53:25 PM 45.4803 -93.7631 141° Southeast 112 129 5,600  Climbing Minneapolis Center
Thu 11:54:38 PM 45.4550 -93.7364 143° Southeast 114 131 5,500 -45 Descending Minneapolis Center
Thu 11:55:39 PM 45.4250 -93.7003 140° Southeast 117 135 5,500  Level Minneapolis Center
Thu 11:56:40 PM 45.4014 -93.6694 137° Southeast 115 132 5,500  Level Minneapolis Center
Thu 11:57:41 PM 45.3769 -93.6406 140° Southeast 115 132 5,500  Level Minneapolis Center
Thu 11:58:42 PM 45.3519 -93.6114 141° Southeast 116 133 5,500 49 Level Minneapolis Center
Thu 11:59:44 PM 45.3308 -93.5778 132° Southeast 115 132 5,600  Climbing Minneapolis Center
Fri 12:00:45 AM 45.3028 -93.5403 137° Southeast 117 135 5,500  Descending Minneapolis Center
Fri 12:01:46 AM 45.2783 -93.5100 139° Southeast 117 135 5,600  Climbing Minneapolis Center
Fri 12:02:47 AM 45.2544 -93.4792 138° Southeast 116 133 5,500 -49 Descending Minneapolis Center
Fri 12:03:48 AM 45.2317 -93.4461 134° Southeast 117 135 5,500 49 Level Minneapolis Center
Fri 12:04:49 AM 45.2103 -93.4131 133° Southeast 115 132 5,600 -148 Climbing Minneapolis Center
Fri 12:05:50 AM 45.1875 -93.3808 135° Southeast 117 135 5,200 -492 Descending Minneapolis Center
Fri 12:06:51 AM 45.1625 -93.3458 135° Southeast 125 144 4,600 -492 Descending Minneapolis Center
Fri 12:07:52 AM 45.1369 -93.3117 137° Southeast 125 144 4,200 -248 Descending Minneapolis Center
Fri 12:08:52 AM 45.1139 -93.2808 137° Southeast 116 133 4,100 -100 Descending Minneapolis Center
Fri 12:10:00 AM 45.0856 -93.2524 145° Southeast  Level FlightAware Approximate
Fri 12:17:00 AM 44.9333 -93.0500 133° Southeast  Level FlightAware Approximate
Fri 12:18:00 AM 44.9346 -93.0603 133° Southeast  Level Estimated
Fri 12:19:00 AM 44.9346 -93.0603 133° Southeast  Level Estimated
Fri 12:20:00 AM 44.9346 -93.0603 133° Southeast  Level Estimated
Fri 12:21:00 AM 44.9346 -93.0603 133° Southeast  Level Estimated
Fri 12:22:00 AM 44.9346 -93.0603 133° Southeast  Level Estimated
Fri 12:23:00 AM 44.9346 -93.0603 133° Southeast  Level Estimated
Fri 12:24:00 AM 44.9346 -93.0603 133° Southeast  Level Estimated
Fri 12:25:00 AM 44.9346 -93.0603 133° Southeast  Level Estimated
Fri 12:26:00 AM 44.9346 -93.0603 133° Southeast  Level Estimated
Fri 12:27:00 AM 44.9346 -93.0603 133° Southeast  Level Estimated

Login

Don't have an account? Register now (free) for customized features, flight alerts, and more!